createdAt,value
2023-01-15T00:02:44.943Z,9
2023-01-15T00:05:44.905Z,9
2023-01-15T00:08:44.904Z,9
2023-01-15T00:11:44.892Z,9
2023-01-15T00:14:44.908Z,9
2023-01-15T00:17:44.907Z,9
2023-01-15T00:20:44.892Z,9
2023-01-15T00:23:44.897Z,9
2023-01-15T00:26:44.901Z,9
2023-01-15T00:29:44.907Z,9
2023-01-15T00:32:44.950Z,9
2023-01-15T00:35:44.941Z,9
2023-01-15T00:38:44.887Z,9
2023-01-15T00:41:44.898Z,9
2023-01-15T00:44:44.906Z,9
2023-01-15T00:47:44.897Z,9.1
2023-01-15T00:50:44.911Z,9.1
2023-01-15T00:53:44.899Z,9.1
2023-01-15T00:56:44.897Z,9.1
2023-01-15T00:59:44.904Z,9.1
2023-01-15T01:02:44.943Z,9.1
2023-01-15T01:05:44.920Z,9.1
2023-01-15T01:08:44.924Z,9.1
2023-01-15T01:11:44.922Z,9.1
2023-01-15T01:14:44.919Z,9.1
2023-01-15T01:17:44.922Z,9.1
2023-01-15T01:20:44.912Z,9.1
2023-01-15T01:23:44.932Z,9.1
2023-01-15T01:26:44.906Z,9.1
2023-01-15T01:29:44.902Z,9.1
2023-01-15T01:32:44.911Z,9.2
2023-01-15T01:35:44.919Z,9.2
2023-01-15T01:38:44.916Z,9.2
2023-01-15T01:44:44.927Z,9.2
2023-01-15T01:47:44.917Z,9.2
2023-01-15T01:50:44.908Z,9.1
2023-01-15T01:53:44.918Z,9.1
2023-01-15T01:56:44.903Z,9.1
2023-01-15T01:59:44.909Z,9.1
2023-01-15T02:02:44.927Z,9.1
2023-01-15T02:05:44.929Z,9
2023-01-15T02:08:44.918Z,9
2023-01-15T02:11:44.938Z,9
2023-01-15T02:14:44.906Z,9
2023-01-15T02:17:44.915Z,9
2023-01-15T02:20:44.921Z,9
2023-01-15T02:23:44.922Z,9
2023-01-15T02:26:44.912Z,9
2023-01-15T02:29:44.941Z,8.9
2023-01-15T02:32:44.907Z,8.9
2023-01-15T02:35:44.926Z,8.9
2023-01-15T02:38:44.920Z,8.9
2023-01-15T02:41:44.939Z,8.8
2023-01-15T02:44:44.920Z,8.8
2023-01-15T02:47:44.920Z,8.8
2023-01-15T02:50:44.921Z,8.8
2023-01-15T02:53:44.927Z,8.8
2023-01-15T02:56:44.955Z,8.7
2023-01-15T02:59:44.917Z,8.7
2023-01-15T03:02:44.964Z,8.7
2023-01-15T03:05:44.919Z,8.6
2023-01-15T03:08:44.918Z,8.6
2023-01-15T03:11:44.922Z,8.6
2023-01-15T03:14:44.918Z,8.6
2023-01-15T03:17:44.933Z,8.5
2023-01-15T03:20:44.923Z,8.5
2023-01-15T03:23:44.916Z,8.4
2023-01-15T03:26:44.927Z,8.4
2023-01-15T03:29:44.927Z,8.3
2023-01-15T03:32:44.920Z,8.3
2023-01-15T03:38:44.919Z,8.2
2023-01-15T03:41:44.914Z,8.2
2023-01-15T03:44:44.918Z,8.2
2023-01-15T03:47:44.940Z,8.1
2023-01-15T03:53:44.995Z,8
2023-01-15T03:56:44.930Z,8
2023-01-15T03:59:44.923Z,8
2023-01-15T04:02:44.923Z,7.9
2023-01-15T04:05:44.928Z,7.9
2023-01-15T04:08:44.939Z,7.9
2023-01-15T04:11:44.932Z,7.8
2023-01-15T04:14:44.924Z,7.8
2023-01-15T04:17:44.928Z,7.8
2023-01-15T04:20:44.931Z,7.8
2023-01-15T04:23:44.967Z,7.7
2023-01-15T04:26:44.934Z,7.7
2023-01-15T04:29:44.933Z,7.6
2023-01-15T04:32:44.944Z,7.6
2023-01-15T04:35:44.945Z,7.6
2023-01-15T04:38:44.951Z,7.5
2023-01-15T04:41:44.935Z,7.5
2023-01-15T04:44:44.926Z,7.5
2023-01-15T04:47:44.931Z,7.5
2023-01-15T04:50:44.947Z,7.4
2023-01-15T04:53:44.925Z,7.4
2023-01-15T04:56:44.925Z,7.3
2023-01-15T04:59:44.949Z,7.3
2023-01-15T05:02:44.970Z,7.3
2023-01-15T05:05:44.945Z,7.3
2023-01-15T05:08:44.947Z,7.2
2023-01-15T05:11:44.945Z,7.2
2023-01-15T05:14:44.969Z,7.2
2023-01-15T05:17:44.945Z,7.2
2023-01-15T05:20:44.955Z,7.1
2023-01-15T05:23:44.935Z,7.1
2023-01-15T05:26:44.951Z,7
2023-01-15T05:29:44.941Z,7
2023-01-15T05:32:44.939Z,7
2023-01-15T05:35:44.976Z,7
2023-01-15T05:38:44.939Z,6.9
2023-01-15T05:41:44.934Z,6.9
2023-01-15T05:44:44.939Z,6.9
2023-01-15T05:47:44.935Z,6.9
2023-01-15T05:50:44.945Z,6.9
2023-01-15T05:53:44.945Z,6.9
2023-01-15T05:56:44.943Z,6.9
2023-01-15T05:59:44.943Z,6.8
2023-01-15T06:05:44.939Z,6.8
2023-01-15T06:08:45.011Z,6.8
2023-01-15T06:11:44.936Z,6.8
2023-01-15T06:14:44.947Z,6.7
2023-01-15T06:17:44.933Z,6.7
2023-01-15T06:20:44.938Z,6.7
2023-01-15T06:23:44.956Z,6.7
2023-01-15T06:26:44.933Z,6.7
2023-01-15T06:29:44.940Z,6.6
2023-01-15T06:32:44.940Z,6.6
2023-01-15T06:35:44.940Z,6.6
2023-01-15T06:38:44.949Z,6.6
2023-01-15T06:41:44.944Z,6.6
2023-01-15T06:44:44.928Z,6.6
2023-01-15T06:47:44.931Z,6.6
2023-01-15T06:50:44.935Z,6.6
2023-01-15T06:53:44.955Z,6.5
2023-01-15T06:56:44.943Z,6.5
2023-01-15T06:59:46.428Z,6.5
2023-01-15T07:02:45.570Z,6.5
2023-01-15T07:05:45.576Z,6.5
2023-01-15T07:08:45.576Z,6.5
2023-01-15T07:11:45.571Z,6.5
2023-01-15T07:14:45.566Z,6.5
2023-01-15T07:17:45.559Z,6.5
2023-01-15T07:20:45.562Z,6.4
2023-01-15T07:23:45.554Z,6.4
2023-01-15T07:26:45.669Z,6.4
2023-01-15T07:29:45.568Z,6.4
2023-01-15T07:32:45.559Z,6.4
2023-01-15T07:35:45.576Z,6.4
2023-01-15T07:38:45.580Z,6.4
2023-01-15T07:41:45.563Z,6.4
2023-01-15T07:44:45.580Z,6.4
2023-01-15T07:47:45.571Z,6.4
2023-01-15T07:50:45.567Z,6.4
2023-01-15T07:53:45.600Z,6.4
2023-01-15T07:56:45.568Z,6.4
2023-01-15T07:59:45.556Z,6.4
2023-01-15T08:02:45.566Z,6.3
2023-01-15T08:05:45.568Z,6.3
2023-01-15T08:08:45.566Z,6.3
2023-01-15T08:11:45.574Z,6.3
2023-01-15T08:14:45.579Z,6.3
2023-01-15T08:17:45.599Z,6.3
2023-01-15T08:20:47.012Z,6.3
2023-01-15T08:23:45.577Z,6.3
2023-01-15T08:26:45.580Z,6.3
2023-01-15T08:29:45.565Z,6.3
2023-01-15T08:32:45.577Z,6.3
2023-01-15T08:35:45.600Z,6.3
2023-01-15T08:38:45.575Z,6.3
2023-01-15T08:41:45.602Z,6.3
2023-01-15T08:44:45.587Z,6.3
2023-01-15T08:47:45.591Z,6.3
2023-01-15T08:50:45.586Z,6.3
2023-01-15T08:53:45.570Z,6.3
2023-01-15T08:56:45.581Z,6.3
2023-01-15T08:59:45.767Z,6.3
2023-01-15T09:02:45.579Z,6.3
2023-01-15T09:05:45.566Z,6.3
2023-01-15T09:08:45.572Z,6.3
2023-01-15T09:11:45.596Z,6.3
2023-01-15T09:14:55.787Z,6.3
2023-01-15T09:20:45.566Z,6.3
2023-01-15T09:23:45.631Z,6.3
2023-01-15T09:26:45.563Z,6.3
2023-01-15T09:29:45.565Z,6.3
2023-01-15T09:32:45.573Z,6.3
2023-01-15T09:35:45.568Z,6.3
2023-01-15T09:38:45.567Z,6.3
2023-01-15T09:41:45.635Z,6.3
2023-01-15T09:44:45.581Z,6.3
2023-01-15T09:47:45.577Z,6.3
2023-01-15T09:53:45.572Z,6.3
2023-01-15T09:56:45.579Z,6.3
2023-01-15T09:59:45.628Z,6.3
2023-01-15T10:02:45.588Z,6.3
2023-01-15T10:05:45.585Z,6.3
2023-01-15T10:08:45.580Z,6.3
2023-01-15T10:11:45.579Z,6.3
2023-01-15T10:14:45.580Z,6.3
2023-01-15T10:17:47.619Z,6.3
2023-01-15T10:20:45.902Z,6.3
2023-01-15T10:23:45.885Z,6.3
2023-01-15T10:26:45.597Z,6.3
2023-01-15T10:29:45.594Z,6.3
2023-01-15T10:32:57.062Z,6.3
2023-01-15T10:35:45.588Z,6.3
2023-01-15T10:41:45.585Z,6.3
2023-01-15T10:44:45.582Z,6.3
2023-01-15T10:47:45.625Z,6.3
2023-01-15T10:50:45.584Z,6.3
2023-01-15T10:53:45.599Z,6.3
2023-01-15T10:56:45.587Z,6.3
2023-01-15T10:59:45.592Z,6.3
2023-01-15T11:02:45.628Z,6.3
2023-01-15T11:09:08.362Z,6.3
2023-01-15T11:11:45.593Z,6.3
2023-01-15T11:14:45.585Z,6.3
2023-01-15T11:17:45.587Z,6.3
2023-01-15T11:23:45.585Z,6.3
2023-01-15T11:26:45.596Z,6.3
2023-01-15T11:29:45.584Z,6.3
2023-01-15T11:32:45.577Z,6.3
2023-01-15T11:35:45.590Z,6.3
2023-01-15T11:38:45.578Z,6.3
2023-01-15T11:41:45.583Z,6.3
2023-01-15T11:44:45.588Z,6.3
2023-01-15T11:47:45.607Z,6.4
2023-01-15T11:50:45.586Z,6.4
2023-01-15T11:53:45.581Z,6.4
2023-01-15T11:56:45.600Z,6.4
2023-01-15T11:59:45.586Z,6.4
2023-01-15T12:02:45.585Z,6.4
2023-01-15T12:05:45.590Z,6.5
2023-01-15T12:08:45.587Z,6.5
2023-01-15T12:11:45.594Z,6.5
2023-01-15T12:14:45.591Z,6.5
2023-01-15T12:20:45.594Z,6.7
2023-01-15T12:23:45.601Z,6.7
2023-01-15T12:26:45.594Z,6.7
2023-01-15T12:29:45.596Z,6.8
2023-01-15T12:32:45.607Z,6.8
2023-01-15T12:35:45.596Z,6.9
2023-01-15T12:38:45.686Z,6.9
2023-01-15T12:41:45.623Z,6.9
2023-01-15T12:44:45.603Z,6.9
2023-01-15T12:47:45.596Z,6.9
2023-01-15T12:50:45.616Z,6.9
2023-01-15T12:53:45.738Z,6.9
2023-01-15T12:56:45.601Z,6.9
2023-01-15T12:59:45.596Z,6.9
2023-01-15T13:02:45.598Z,6.9
2023-01-15T13:05:45.594Z,6.9
2023-01-15T13:08:45.597Z,7
2023-01-15T13:11:45.599Z,7
2023-01-15T13:14:46.666Z,7
2023-01-15T13:17:45.601Z,7
2023-01-15T13:20:45.603Z,7
2023-01-15T13:23:45.622Z,7
2023-01-15T13:26:45.608Z,7
2023-01-15T13:29:45.598Z,7
2023-01-15T13:32:45.607Z,7
2023-01-15T13:35:45.604Z,7
2023-01-15T13:38:45.609Z,7
2023-01-15T13:41:45.606Z,7.1
2023-01-15T13:44:45.598Z,7.1
2023-01-15T13:47:45.598Z,7.1
2023-01-15T13:50:45.602Z,7.1
2023-01-15T13:53:45.603Z,7.1
2023-01-15T13:56:45.600Z,7.1
2023-01-15T13:59:45.606Z,7.1
2023-01-15T14:02:45.617Z,7.1
2023-01-15T14:05:45.606Z,7.1
2023-01-15T14:08:45.606Z,7.1
2023-01-15T14:11:45.601Z,7.1
2023-01-15T14:14:45.616Z,7.1
2023-01-15T14:17:45.609Z,7.1
2023-01-15T14:20:45.603Z,7.1
2023-01-15T14:23:45.609Z,7.1
2023-01-15T14:26:45.595Z,7.1
2023-01-15T14:29:45.605Z,7.1
2023-01-15T14:32:47.721Z,7.1
2023-01-15T14:35:45.610Z,7.1
2023-01-15T14:38:45.612Z,7.1
2023-01-15T14:41:45.611Z,7.1
2023-01-15T14:44:45.623Z,7.1
2023-01-15T14:47:45.612Z,7.1
2023-01-15T14:50:45.617Z,7.1
2023-01-15T14:53:45.606Z,7.1
2023-01-15T14:56:45.617Z,7.1
2023-01-15T15:02:45.663Z,7.1
2023-01-15T15:05:45.663Z,7.1
2023-01-15T15:08:45.666Z,7.1
2023-01-15T15:11:45.660Z,7.1
2023-01-15T15:14:47.306Z,7.1
2023-01-15T15:17:45.661Z,7.1
2023-01-15T15:20:45.650Z,7.1
2023-01-15T15:23:45.647Z,7.1
2023-01-15T15:26:45.655Z,7.1
2023-01-15T15:29:45.661Z,7.1
2023-01-15T15:32:45.659Z,7.1
2023-01-15T15:35:45.655Z,7.1
2023-01-15T15:38:45.662Z,7.1
2023-01-15T15:41:45.693Z,7.1
2023-01-15T15:44:45.661Z,7
2023-01-15T15:47:45.656Z,7
2023-01-15T15:50:45.691Z,7
2023-01-15T15:53:45.655Z,7.1
2023-01-15T15:56:45.662Z,7.1
2023-01-15T15:59:45.660Z,7
2023-01-15T16:02:45.669Z,7
2023-01-15T16:05:45.660Z,7
2023-01-15T16:08:45.655Z,7
2023-01-15T16:11:45.659Z,7
2023-01-15T16:14:45.662Z,7
2023-01-15T16:17:45.662Z,7
2023-01-15T16:20:45.664Z,7
2023-01-15T16:23:45.662Z,7
2023-01-15T16:26:45.656Z,7
2023-01-15T16:29:45.658Z,7
2023-01-15T16:32:45.662Z,7
2023-01-15T16:35:45.670Z,6.9
2023-01-15T16:38:45.666Z,6.9
2023-01-15T16:41:45.672Z,6.9
2023-01-15T16:44:45.663Z,6.9
2023-01-15T16:47:45.665Z,6.9
2023-01-15T16:50:45.662Z,6.9
2023-01-15T16:53:45.678Z,6.9
2023-01-15T16:56:45.664Z,6.9
2023-01-15T16:59:45.692Z,6.9
2023-01-15T17:02:45.690Z,6.8
2023-01-15T17:05:45.666Z,6.8
2023-01-15T17:08:45.665Z,6.8
2023-01-15T17:11:45.666Z,6.8
2023-01-15T17:14:45.672Z,6.8
2023-01-15T17:17:45.670Z,6.8
2023-01-15T17:20:45.673Z,6.8
2023-01-15T17:23:45.664Z,6.8
2023-01-15T17:26:45.666Z,6.8
2023-01-15T17:29:45.669Z,6.7
2023-01-15T17:32:45.675Z,6.7
2023-01-15T17:35:45.669Z,6.7
2023-01-15T17:38:45.665Z,6.7
2023-01-15T17:41:45.667Z,6.7
2023-01-15T17:44:45.670Z,6.7
2023-01-15T17:47:45.668Z,6.7
2023-01-15T17:50:45.668Z,6.6
2023-01-15T17:53:45.671Z,6.6
2023-01-15T17:56:45.673Z,6.6
2023-01-15T17:59:45.667Z,6.6
2023-01-15T18:02:45.710Z,6.6
2023-01-15T18:05:45.684Z,6.6
2023-01-15T18:08:45.680Z,6.5
2023-01-15T18:11:45.677Z,6.5
2023-01-15T18:14:45.681Z,6.5
2023-01-15T18:17:45.684Z,6.5
2023-01-15T18:20:45.671Z,6.5
2023-01-15T18:23:45.676Z,6.5
2023-01-15T18:26:45.675Z,6.5
2023-01-15T18:29:45.676Z,6.5
2023-01-15T18:32:45.680Z,6.4
2023-01-15T18:35:45.684Z,6.4
2023-01-15T18:38:45.677Z,6.4
2023-01-15T18:41:45.685Z,6.4
2023-01-15T18:44:45.682Z,6.5
2023-01-15T18:47:45.685Z,6.4
2023-01-15T18:50:45.676Z,6.4
2023-01-15T18:53:45.685Z,6.4
2023-01-15T18:56:45.675Z,6.4
2023-01-15T18:59:45.675Z,6.4
2023-01-15T19:02:45.673Z,6.4
2023-01-15T19:05:45.677Z,6.4
2023-01-15T19:08:45.700Z,6.4
2023-01-15T19:11:45.684Z,6.4
2023-01-15T19:14:45.695Z,6.4
2023-01-15T19:17:45.674Z,6.4
2023-01-15T19:20:45.668Z,6.5
2023-01-15T19:23:45.678Z,6.5
2023-01-15T19:26:45.677Z,6.5
2023-01-15T19:29:45.671Z,6.5
2023-01-15T19:32:45.682Z,6.5
2023-01-15T19:35:45.676Z,6.5
2023-01-15T19:38:45.687Z,6.5
2023-01-15T19:41:45.677Z,6.5
2023-01-15T19:44:46.507Z,6.5
2023-01-15T19:47:46.427Z,6.5
2023-01-15T19:50:46.458Z,6.5
2023-01-15T19:53:46.424Z,6.5
2023-01-15T19:56:46.421Z,6.5
2023-01-15T19:59:46.426Z,6.5
2023-01-15T20:02:46.454Z,6.5
2023-01-15T20:05:46.428Z,6.5
2023-01-15T20:08:46.413Z,6.5
2023-01-15T20:11:46.412Z,6.5
2023-01-15T20:14:47.379Z,6.5
2023-01-15T20:17:46.411Z,6.5
2023-01-15T20:20:46.429Z,6.5
2023-01-15T20:23:46.430Z,6.5
2023-01-15T20:26:46.412Z,6.5
2023-01-15T20:29:46.413Z,6.5
2023-01-15T20:32:46.417Z,6.5
2023-01-15T20:35:46.442Z,6.5
2023-01-15T20:38:46.415Z,6.5
2023-01-15T20:41:46.413Z,6.5
2023-01-15T20:44:46.419Z,6.5
2023-01-15T20:47:46.414Z,6.5
2023-01-15T20:50:46.413Z,6.4
2023-01-15T20:53:46.424Z,6.4
2023-01-15T20:56:46.422Z,6.4
2023-01-15T20:59:46.426Z,6.4
2023-01-15T21:02:46.421Z,6.4
2023-01-15T21:05:46.422Z,6.3
2023-01-15T21:11:46.423Z,6.3
2023-01-15T21:14:46.416Z,6.3
2023-01-15T21:17:46.425Z,6.2
2023-01-15T21:20:46.422Z,6.2
2023-01-15T21:23:46.426Z,6.2
2023-01-15T21:26:46.420Z,6.2
2023-01-15T21:29:46.427Z,6.2
2023-01-15T21:32:46.527Z,6.1
2023-01-15T21:35:46.434Z,6.1
2023-01-15T21:38:46.429Z,6.1
2023-01-15T21:41:46.438Z,6.1
2023-01-15T21:44:46.432Z,6
2023-01-15T21:47:46.431Z,6
2023-01-15T21:50:46.427Z,6
2023-01-15T21:53:46.421Z,6
2023-01-15T21:56:46.425Z,6
2023-01-15T21:59:46.434Z,6
2023-01-15T22:02:46.474Z,6
2023-01-15T22:05:46.435Z,6
2023-01-15T22:08:46.429Z,6
2023-01-15T22:11:46.427Z,6
2023-01-15T22:14:46.429Z,6
2023-01-15T22:17:46.436Z,6
2023-01-15T22:20:46.430Z,5.9
2023-01-15T22:23:48.832Z,5.9
2023-01-15T22:26:46.428Z,5.9
2023-01-15T22:32:46.429Z,5.9
2023-01-15T22:35:46.435Z,5.9
2023-01-15T22:38:46.450Z,5.9
2023-01-15T22:41:46.432Z,5.9
2023-01-15T22:44:46.436Z,5.9
2023-01-15T22:47:46.435Z,5.8
2023-01-15T22:53:46.446Z,5.8
2023-01-15T22:56:46.431Z,5.8
2023-01-15T22:59:46.446Z,5.8
2023-01-15T23:02:46.430Z,5.8
2023-01-15T23:05:46.429Z,5.8
2023-01-15T23:08:46.464Z,5.9
2023-01-15T23:11:46.438Z,5.9
2023-01-15T23:14:46.438Z,5.9
2023-01-15T23:17:46.435Z,5.9
2023-01-15T23:20:46.435Z,5.9
2023-01-15T23:23:46.437Z,5.9
2023-01-15T23:26:46.442Z,5.9
2023-01-15T23:29:46.441Z,5.9
2023-01-15T23:32:46.439Z,5.9
2023-01-15T23:35:46.446Z,5.9
2023-01-15T23:38:46.435Z,5.9
2023-01-15T23:41:46.446Z,5.9
2023-01-15T23:44:46.440Z,5.9
2023-01-15T23:50:46.433Z,5.9
2023-01-15T23:53:46.450Z,5.9
2023-01-15T23:56:46.462Z,5.9
2023-01-15T23:59:46.441Z,5.9
